sensor_id;sensor_type;location;lat;lon;timestamp;temperature;humidity
44461;DHT22;30162;53.642;10.640;2023-06-22T00:01:47;21.40;78.10
44461;DHT22;30162;53.642;10.640;2023-06-22T00:04:13;21.40;78.40
44461;DHT22;30162;53.642;10.640;2023-06-22T00:06:38;21.40;78.90
44461;DHT22;30162;53.642;10.640;2023-06-22T00:09:04;21.40;78.80
44461;DHT22;30162;53.642;10.640;2023-06-22T00:11:29;21.30;78.90
44461;DHT22;30162;53.642;10.640;2023-06-22T00:13:58;21.40;79.60
44461;DHT22;30162;53.642;10.640;2023-06-22T00:16:23;21.50;79.00
44461;DHT22;30162;53.642;10.640;2023-06-22T00:18:49;21.60;78.90
44461;DHT22;30162;53.642;10.640;2023-06-22T00:21:14;21.40;79.40
44461;DHT22;30162;53.642;10.640;2023-06-22T00:23:39;21.50;79.20
44461;DHT22;30162;53.642;10.640;2023-06-22T00:26:06;21.50;79.20
44461;DHT22;30162;53.642;10.640;2023-06-22T00:28:32;21.30;79.60
44461;DHT22;30162;53.642;10.640;2023-06-22T00:30:57;21.20;80.10
44461;DHT22;30162;53.642;10.640;2023-06-22T00:33:23;21.20;80.30
44461;DHT22;30162;53.642;10.640;2023-06-22T00:35:48;21.20;80.20
44461;DHT22;30162;53.642;10.640;2023-06-22T00:38:18;21.10;80.60
44461;DHT22;30162;53.642;10.640;2023-06-22T00:40:43;21.10;80.20
44461;DHT22;30162;53.642;10.640;2023-06-22T00:43:09;21.00;80.60
44461;DHT22;30162;53.642;10.640;2023-06-22T00:45:34;21.00;80.80
44461;DHT22;30162;53.642;10.640;2023-06-22T00:48:00;21.10;81.50
44461;DHT22;30162;53.642;10.640;2023-06-22T00:50:27;21.20;80.40
44461;DHT22;30162;53.642;10.640;2023-06-22T00:52:53;21.20;80.80
44461;DHT22;30162;53.642;10.640;2023-06-22T00:55:21;21.20;80.40
44461;DHT22;30162;53.642;10.640;2023-06-22T00:57:47;21.10;80.60
44461;DHT22;30162;53.642;10.640;2023-06-22T01:00:14;21.10;81.20
44461;DHT22;30162;53.642;10.640;2023-06-22T01:02:42;21.00;80.80
44461;DHT22;30162;53.642;10.640;2023-06-22T01:05:14;21.10;81.40
44461;DHT22;30162;53.642;10.640;2023-06-22T01:07:42;21.30;81.00
44461;DHT22;30162;53.642;10.640;2023-06-22T01:10:16;21.30;80.30
44461;DHT22;30162;53.642;10.640;2023-06-22T01:12:44;21.30;80.90
44461;DHT22;30162;53.642;10.640;2023-06-22T01:15:13;21.20;80.90
44461;DHT22;30162;53.642;10.640;2023-06-22T01:17:40;21.40;80.50
44461;DHT22;30162;53.642;10.640;2023-06-22T01:20:06;21.40;80.50
44461;DHT22;30162;53.642;10.640;2023-06-22T01:22:36;21.50;80.40
44461;DHT22;30162;53.642;10.640;2023-06-22T01:25:13;21.50;80.20
44461;DHT22;30162;53.642;10.640;2023-06-22T01:27:58;21.50;80.20
44461;DHT22;30162;53.642;10.640;2023-06-22T01:30:28;21.50;80.60
44461;DHT22;30162;53.642;10.640;2023-06-22T01:32:56;21.50;80.90
44461;DHT22;30162;53.642;10.640;2023-06-22T01:35:21;21.50;80.90
44461;DHT22;30162;53.642;10.640;2023-06-22T01:37:47;21.50;80.80
44461;DHT22;30162;53.642;10.640;2023-06-22T01:40:13;21.50;80.70
44461;DHT22;30162;53.642;10.640;2023-06-22T01:42:40;21.50;80.90
44461;DHT22;30162;53.642;10.640;2023-06-22T01:45:06;21.40;81.40
44461;DHT22;30162;53.642;10.640;2023-06-22T01:47:32;21.30;81.40
44461;DHT22;30162;53.642;10.640;2023-06-22T01:49:58;21.30;81.60
44461;DHT22;30162;53.642;10.640;2023-06-22T01:52:24;21.30;81.60
44461;DHT22;30162;53.642;10.640;2023-06-22T01:54:50;21.20;81.80
44461;DHT22;30162;53.642;10.640;2023-06-22T01:57:15;21.10;82.00
44461;DHT22;30162;53.642;10.640;2023-06-22T01:59:57;21.10;81.90
44461;DHT22;30162;53.642;10.640;2023-06-22T02:02:24;21.10;82.50
44461;DHT22;30162;53.642;10.640;2023-06-22T02:05:08;21.30;82.00
44461;DHT22;30162;53.642;10.640;2023-06-22T02:07:54;21.40;81.90
44461;DHT22;30162;53.642;10.640;2023-06-22T02:10:21;21.40;81.80
44461;DHT22;30162;53.642;10.640;2023-06-22T02:12:48;21.40;81.50
44461;DHT22;30162;53.642;10.640;2023-06-22T02:15:14;21.30;81.50
44461;DHT22;30162;53.642;10.640;2023-06-22T02:17:40;21.20;81.80
44461;DHT22;30162;53.642;10.640;2023-06-22T02:20:13;21.20;82.00
44461;DHT22;30162;53.642;10.640;2023-06-22T02:22:39;21.10;82.40
44461;DHT22;30162;53.642;10.640;2023-06-22T02:25:04;21.10;82.30
44461;DHT22;30162;53.642;10.640;2023-06-22T02:27:30;21.10;82.10
44461;DHT22;30162;53.642;10.640;2023-06-22T02:29:55;21.00;82.50
44461;DHT22;30162;53.642;10.640;2023-06-22T02:32:20;21.00;82.60
44461;DHT22;30162;53.642;10.640;2023-06-22T02:34:46;21.10;82.40
44461;DHT22;30162;53.642;10.640;2023-06-22T02:37:14;21.10;82.00
44461;DHT22;30162;53.642;10.640;2023-06-22T02:39:40;21.10;82.40
44461;DHT22;30162;53.642;10.640;2023-06-22T02:42:05;21.10;82.20
44461;DHT22;30162;53.642;10.640;2023-06-22T02:44:31;21.20;81.80
44461;DHT22;30162;53.642;10.640;2023-06-22T02:46:58;21.00;82.10
44461;DHT22;30162;53.642;10.640;2023-06-22T02:49:24;20.90;82.40
44461;DHT22;30162;53.642;10.640;2023-06-22T02:51:49;20.80;82.20
44461;DHT22;30162;53.642;10.640;2023-06-22T02:54:15;20.80;82.90
44461;DHT22;30162;53.642;10.640;2023-06-22T02:56:41;20.90;82.80
44461;DHT22;30162;53.642;10.640;2023-06-22T02:59:09;20.90;83.10
44461;DHT22;30162;53.642;10.640;2023-06-22T03:01:36;21.00;83.10
44461;DHT22;30162;53.642;10.640;2023-06-22T03:04:08;20.80;83.20
44461;DHT22;30162;53.642;10.640;2023-06-22T03:06:34;20.80;83.50
44461;DHT22;30162;53.642;10.640;2023-06-22T03:09:00;20.80;83.60
44461;DHT22;30162;53.642;10.640;2023-06-22T03:11:26;20.70;84.10
44461;DHT22;30162;53.642;10.640;2023-06-22T03:13:51;20.70;84.20
44461;DHT22;30162;53.642;10.640;2023-06-22T03:16:18;20.50;84.30
44461;DHT22;30162;53.642;10.640;2023-06-22T03:18:44;20.50;84.90
44461;DHT22;30162;53.642;10.640;2023-06-22T03:21:09;20.60;84.90
44461;DHT22;30162;53.642;10.640;2023-06-22T03:23:35;20.80;84.30
44461;DHT22;30162;53.642;10.640;2023-06-22T03:26:01;20.70;84.10
44461;DHT22;30162;53.642;10.640;2023-06-22T03:28:26;20.70;84.60
44461;DHT22;30162;53.642;10.640;2023-06-22T03:30:51;20.70;84.50
44461;DHT22;30162;53.642;10.640;2023-06-22T03:33:17;20.80;84.40
44461;DHT22;30162;53.642;10.640;2023-06-22T03:35:42;21.00;83.90
44461;DHT22;30162;53.642;10.640;2023-06-22T03:38:08;21.10;83.70
44461;DHT22;30162;53.642;10.640;2023-06-22T03:40:33;21.00;84.20
44461;DHT22;30162;53.642;10.640;2023-06-22T03:42:59;20.90;84.00
44461;DHT22;30162;53.642;10.640;2023-06-22T03:45:24;20.90;84.00
44461;DHT22;30162;53.642;10.640;2023-06-22T03:47:49;20.80;84.60
44461;DHT22;30162;53.642;10.640;2023-06-22T03:50:15;21.10;84.60
44461;DHT22;30162;53.642;10.640;2023-06-22T03:52:40;21.20;84.20
44461;DHT22;30162;53.642;10.640;2023-06-22T03:55:06;21.30;83.90
44461;DHT22;30162;53.642;10.640;2023-06-22T03:57:32;21.20;84.00
44461;DHT22;30162;53.642;10.640;2023-06-22T03:59:57;21.20;84.30
44461;DHT22;30162;53.642;10.640;2023-06-22T04:02:23;21.30;84.20
44461;DHT22;30162;53.642;10.640;2023-06-22T04:04:48;21.40;84.50
44461;DHT22;30162;53.642;10.640;2023-06-22T04:07:14;21.60;84.10
44461;DHT22;30162;53.642;10.640;2023-06-22T04:09:39;21.80;83.60
44461;DHT22;30162;53.642;10.640;2023-06-22T04:12:05;21.90;83.30
44461;DHT22;30162;53.642;10.640;2023-06-22T04:14:31;21.90;83.10
44461;DHT22;30162;53.642;10.640;2023-06-22T04:16:57;22.00;83.00
44461;DHT22;30162;53.642;10.640;2023-06-22T04:19:22;22.00;83.20
44461;DHT22;30162;53.642;10.640;2023-06-22T04:21:48;22.20;83.10
44461;DHT22;30162;53.642;10.640;2023-06-22T04:24:14;22.30;83.30
44461;DHT22;30162;53.642;10.640;2023-06-22T04:26:39;22.20;83.30
44461;DHT22;30162;53.642;10.640;2023-06-22T04:29:07;22.20;83.10
44461;DHT22;30162;53.642;10.640;2023-06-22T04:31:37;22.00;83.70
44461;DHT22;30162;53.642;10.640;2023-06-22T04:34:03;22.10;84.00
44461;DHT22;30162;53.642;10.640;2023-06-22T04:36:35;22.10;84.40
44461;DHT22;30162;53.642;10.640;2023-06-22T04:39:04;22.20;84.40
44461;DHT22;30162;53.642;10.640;2023-06-22T04:41:30;22.30;84.00
44461;DHT22;30162;53.642;10.640;2023-06-22T04:44:07;22.40;84.10
44461;DHT22;30162;53.642;10.640;2023-06-22T04:46:32;22.40;84.00
44461;DHT22;30162;53.642;10.640;2023-06-22T04:49:06;22.60;84.00
44461;DHT22;30162;53.642;10.640;2023-06-22T04:51:41;22.60;83.70
44461;DHT22;30162;53.642;10.640;2023-06-22T04:54:09;22.70;83.70
44461;DHT22;30162;53.642;10.640;2023-06-22T04:56:34;22.70;83.70
44461;DHT22;30162;53.642;10.640;2023-06-22T04:59:00;22.90;83.00
44461;DHT22;30162;53.642;10.640;2023-06-22T05:01:26;22.90;82.70
44461;DHT22;30162;53.642;10.640;2023-06-22T05:03:51;23.00;82.70
44461;DHT22;30162;53.642;10.640;2023-06-22T05:06:26;23.10;82.60
44461;DHT22;30162;53.642;10.640;2023-06-22T05:08:54;23.20;82.30
44461;DHT22;30162;53.642;10.640;2023-06-22T05:11:24;23.20;82.00
44461;DHT22;30162;53.642;10.640;2023-06-22T05:13:50;23.20;81.80
44461;DHT22;30162;53.642;10.640;2023-06-22T05:16:15;23.10;82.20
44461;DHT22;30162;53.642;10.640;2023-06-22T05:18:40;23.10;82.90
44461;DHT22;30162;53.642;10.640;2023-06-22T05:21:07;23.20;83.20
44461;DHT22;30162;53.642;10.640;2023-06-22T05:23:32;23.20;83.00
44461;DHT22;30162;53.642;10.640;2023-06-22T05:25:58;23.10;83.10
44461;DHT22;30162;53.642;10.640;2023-06-22T05:28:23;23.30;82.60
44461;DHT22;30162;53.642;10.640;2023-06-22T05:30:49;23.40;82.90
44461;DHT22;30162;53.642;10.640;2023-06-22T05:33:15;23.50;83.10
44461;DHT22;30162;53.642;10.640;2023-06-22T05:35:40;23.60;82.70
44461;DHT22;30162;53.642;10.640;2023-06-22T05:38:06;23.70;81.90
44461;DHT22;30162;53.642;10.640;2023-06-22T05:40:32;23.90;81.20
44461;DHT22;30162;53.642;10.640;2023-06-22T05:42:57;24.00;80.10
44461;DHT22;30162;53.642;10.640;2023-06-22T05:45:23;24.00;80.30
44461;DHT22;30162;53.642;10.640;2023-06-22T05:47:48;24.20;79.90
44461;DHT22;30162;53.642;10.640;2023-06-22T05:50:14;24.40;78.40
44461;DHT22;30162;53.642;10.640;2023-06-22T05:52:39;24.50;77.80
44461;DHT22;30162;53.642;10.640;2023-06-22T05:55:05;24.60;77.00
44461;DHT22;30162;53.642;10.640;2023-06-22T05:57:30;24.80;75.00
44461;DHT22;30162;53.642;10.640;2023-06-22T05:59:56;25.00;76.00
44461;DHT22;30162;53.642;10.640;2023-06-22T06:02:21;25.00;75.00
44461;DHT22;30162;53.642;10.640;2023-06-22T06:04:47;25.00;75.50
44461;DHT22;30162;53.642;10.640;2023-06-22T06:07:12;25.10;75.90
44461;DHT22;30162;53.642;10.640;2023-06-22T06:09:38;25.20;76.60
44461;DHT22;30162;53.642;10.640;2023-06-22T06:12:03;25.30;76.70
44461;DHT22;30162;53.642;10.640;2023-06-22T06:14:29;25.40;75.90
44461;DHT22;30162;53.642;10.640;2023-06-22T06:16:54;25.50;76.20
44461;DHT22;30162;53.642;10.640;2023-06-22T06:19:20;25.50;76.20
44461;DHT22;30162;53.642;10.640;2023-06-22T06:21:45;25.60;76.00
44461;DHT22;30162;53.642;10.640;2023-06-22T06:24:11;25.70;75.30
44461;DHT22;30162;53.642;10.640;2023-06-22T06:26:37;25.90;75.40
44461;DHT22;30162;53.642;10.640;2023-06-22T06:29:02;26.10;74.50
44461;DHT22;30162;53.642;10.640;2023-06-22T06:31:28;26.20;74.40
44461;DHT22;30162;53.642;10.640;2023-06-22T06:33:54;26.40;74.90
44461;DHT22;30162;53.642;10.640;2023-06-22T06:36:20;26.60;72.90
44461;DHT22;30162;53.642;10.640;2023-06-22T06:38:46;26.80;72.70
44461;DHT22;30162;53.642;10.640;2023-06-22T06:41:15;26.80;70.90
44461;DHT22;30162;53.642;10.640;2023-06-22T06:43:41;26.60;70.90
44461;DHT22;30162;53.642;10.640;2023-06-22T06:46:08;26.70;70.30
44461;DHT22;30162;53.642;10.640;2023-06-22T06:48:34;26.90;69.50
44461;DHT22;30162;53.642;10.640;2023-06-22T06:50:59;27.20;69.30
44461;DHT22;30162;53.642;10.640;2023-06-22T06:53:24;27.40;68.40
44461;DHT22;30162;53.642;10.640;2023-06-22T06:55:50;27.50;67.40
44461;DHT22;30162;53.642;10.640;2023-06-22T06:58:15;27.50;67.50
44461;DHT22;30162;53.642;10.640;2023-06-22T07:00:41;27.60;67.50
44461;DHT22;30162;53.642;10.640;2023-06-22T07:03:07;27.60;68.30
44461;DHT22;30162;53.642;10.640;2023-06-22T07:05:32;27.50;68.20
44461;DHT22;30162;53.642;10.640;2023-06-22T07:07:58;27.70;67.10
44461;DHT22;30162;53.642;10.640;2023-06-22T07:10:24;28.10;68.00
44461;DHT22;30162;53.642;10.640;2023-06-22T07:12:49;28.20;67.40
44461;DHT22;30162;53.642;10.640;2023-06-22T07:15:15;28.30;66.20
44461;DHT22;30162;53.642;10.640;2023-06-22T07:17:40;28.30;65.90
44461;DHT22;30162;53.642;10.640;2023-06-22T07:20:06;28.60;65.00
44461;DHT22;30162;53.642;10.640;2023-06-22T07:22:35;28.80;64.90
44461;DHT22;30162;53.642;10.640;2023-06-22T07:25:01;29.00;64.60
44461;DHT22;30162;53.642;10.640;2023-06-22T07:27:29;29.20;64.10
44461;DHT22;30162;53.642;10.640;2023-06-22T07:30:00;29.40;64.50
44461;DHT22;30162;53.642;10.640;2023-06-22T07:32:25;29.50;63.60
44461;DHT22;30162;53.642;10.640;2023-06-22T07:34:51;29.30;63.40
44461;DHT22;30162;53.642;10.640;2023-06-22T07:37:16;29.10;62.50
44461;DHT22;30162;53.642;10.640;2023-06-22T07:39:42;28.90;64.10
44461;DHT22;30162;53.642;10.640;2023-06-22T07:42:07;28.90;64.20
44461;DHT22;30162;53.642;10.640;2023-06-22T07:44:33;29.00;63.80
44461;DHT22;30162;53.642;10.640;2023-06-22T07:46:58;29.20;63.60
44461;DHT22;30162;53.642;10.640;2023-06-22T07:49:24;29.30;63.30
44461;DHT22;30162;53.642;10.640;2023-06-22T07:51:49;29.50;64.00
44461;DHT22;30162;53.642;10.640;2023-06-22T07:54:15;29.90;62.70
44461;DHT22;30162;53.642;10.640;2023-06-22T07:56:42;30.00;62.20
44461;DHT22;30162;53.642;10.640;2023-06-22T07:59:08;29.80;62.50
44461;DHT22;30162;53.642;10.640;2023-06-22T08:01:33;29.80;63.50
44461;DHT22;30162;53.642;10.640;2023-06-22T08:03:59;30.10;62.20
44461;DHT22;30162;53.642;10.640;2023-06-22T08:06:24;29.80;63.50
44461;DHT22;30162;53.642;10.640;2023-06-22T08:08:50;30.10;63.70
44461;DHT22;30162;53.642;10.640;2023-06-22T08:11:18;30.30;62.70
44461;DHT22;30162;53.642;10.640;2023-06-22T08:13:43;30.30;62.50
44461;DHT22;30162;53.642;10.640;2023-06-22T08:16:09;30.30;62.50
44461;DHT22;30162;53.642;10.640;2023-06-22T08:18:34;30.60;62.00
44461;DHT22;30162;53.642;10.640;2023-06-22T08:21:00;30.60;62.40
44461;DHT22;30162;53.642;10.640;2023-06-22T08:23:25;30.60;62.50
44461;DHT22;30162;53.642;10.640;2023-06-22T08:25:51;30.70;61.70
44461;DHT22;30162;53.642;10.640;2023-06-22T08:28:16;30.50;61.30
44461;DHT22;30162;53.642;10.640;2023-06-22T08:30:41;30.50;62.50
44461;DHT22;30162;53.642;10.640;2023-06-22T08:33:07;30.20;62.30
44461;DHT22;30162;53.642;10.640;2023-06-22T08:35:32;30.10;62.30
44461;DHT22;30162;53.642;10.640;2023-06-22T08:37:58;30.00;62.30
44461;DHT22;30162;53.642;10.640;2023-06-22T08:40:25;29.90;62.50
44461;DHT22;30162;53.642;10.640;2023-06-22T08:42:50;29.90;63.30
44461;DHT22;30162;53.642;10.640;2023-06-22T08:45:16;29.90;64.30
44461;DHT22;30162;53.642;10.640;2023-06-22T08:47:41;30.00;63.60
44461;DHT22;30162;53.642;10.640;2023-06-22T08:50:07;30.40;63.10
44461;DHT22;30162;53.642;10.640;2023-06-22T08:52:34;30.90;62.20
44461;DHT22;30162;53.642;10.640;2023-06-22T08:54:59;31.30;60.50
44461;DHT22;30162;53.642;10.640;2023-06-22T08:57:25;31.50;59.70
44461;DHT22;30162;53.642;10.640;2023-06-22T08:59:51;31.60;60.70
44461;DHT22;30162;53.642;10.640;2023-06-22T09:02:23;32.00;60.40
44461;DHT22;30162;53.642;10.640;2023-06-22T09:04:49;32.10;59.40
44461;DHT22;30162;53.642;10.640;2023-06-22T09:07:21;32.20;59.40
44461;DHT22;30162;53.642;10.640;2023-06-22T09:09:48;32.20;58.80
44461;DHT22;30162;53.642;10.640;2023-06-22T09:12:14;32.10;57.80
44461;DHT22;30162;53.642;10.640;2023-06-22T09:14:39;32.20;59.30
44461;DHT22;30162;53.642;10.640;2023-06-22T09:17:05;32.70;57.90
44461;DHT22;30162;53.642;10.640;2023-06-22T09:19:30;32.80;56.70
44461;DHT22;30162;53.642;10.640;2023-06-22T09:21:56;32.80;56.30
44461;DHT22;30162;53.642;10.640;2023-06-22T09:24:21;33.00;56.20
44461;DHT22;30162;53.642;10.640;2023-06-22T09:26:47;32.90;55.20
44461;DHT22;30162;53.642;10.640;2023-06-22T09:29:12;32.90;57.10
44461;DHT22;30162;53.642;10.640;2023-06-22T09:31:38;32.90;54.90
44461;DHT22;30162;53.642;10.640;2023-06-22T09:34:03;32.70;57.20
44461;DHT22;30162;53.642;10.640;2023-06-22T09:36:29;32.30;56.40
44461;DHT22;30162;53.642;10.640;2023-06-22T09:38:55;32.60;57.60
44461;DHT22;30162;53.642;10.640;2023-06-22T09:41:23;32.70;57.60
44461;DHT22;30162;53.642;10.640;2023-06-22T09:43:49;32.90;57.20
44461;DHT22;30162;53.642;10.640;2023-06-22T09:46:15;33.00;56.30
44461;DHT22;30162;53.642;10.640;2023-06-22T09:48:40;33.20;57.10
44461;DHT22;30162;53.642;10.640;2023-06-22T09:51:06;33.40;57.30
44461;DHT22;30162;53.642;10.640;2023-06-22T09:53:31;33.50;55.50
44461;DHT22;30162;53.642;10.640;2023-06-22T09:55:57;33.60;55.60
44461;DHT22;30162;53.642;10.640;2023-06-22T09:58:23;33.50;56.20
44461;DHT22;30162;53.642;10.640;2023-06-22T10:00:48;33.60;56.10
44461;DHT22;30162;53.642;10.640;2023-06-22T10:03:14;34.00;57.10
44461;DHT22;30162;53.642;10.640;2023-06-22T10:05:39;34.10;55.50
44461;DHT22;30162;53.642;10.640;2023-06-22T10:08:04;34.40;56.00
44461;DHT22;30162;53.642;10.640;2023-06-22T10:10:30;34.50;55.90
44461;DHT22;30162;53.642;10.640;2023-06-22T10:12:56;34.50;56.00
44461;DHT22;30162;53.642;10.640;2023-06-22T10:15:22;34.80;55.10
44461;DHT22;30162;53.642;10.640;2023-06-22T10:17:48;34.60;54.50
44461;DHT22;30162;53.642;10.640;2023-06-22T10:20:13;34.60;54.90
44461;DHT22;30162;53.642;10.640;2023-06-22T10:22:40;35.00;55.70
44461;DHT22;30162;53.642;10.640;2023-06-22T10:25:05;35.00;54.10
44461;DHT22;30162;53.642;10.640;2023-06-22T10:27:31;35.20;53.50
44461;DHT22;30162;53.642;10.640;2023-06-22T10:29:57;35.30;54.90
44461;DHT22;30162;53.642;10.640;2023-06-22T10:32:23;35.60;55.20
44461;DHT22;30162;53.642;10.640;2023-06-22T10:34:48;35.50;54.10
44461;DHT22;30162;53.642;10.640;2023-06-22T10:37:13;34.90;53.40
44461;DHT22;30162;53.642;10.640;2023-06-22T10:39:39;34.30;55.80
44461;DHT22;30162;53.642;10.640;2023-06-22T10:42:04;34.00;55.50
44461;DHT22;30162;53.642;10.640;2023-06-22T10:44:30;33.10;56.60
44461;DHT22;30162;53.642;10.640;2023-06-22T10:46:55;32.80;56.10
44461;DHT22;30162;53.642;10.640;2023-06-22T10:49:21;32.70;56.80
44461;DHT22;30162;53.642;10.640;2023-06-22T10:51:46;32.70;56.10
44461;DHT22;30162;53.642;10.640;2023-06-22T10:54:12;33.40;56.40
44461;DHT22;30162;53.642;10.640;2023-06-22T10:56:39;34.10;56.40
44461;DHT22;30162;53.642;10.640;2023-06-22T10:59:05;34.10;54.30
44461;DHT22;30162;53.642;10.640;2023-06-22T11:01:30;33.60;54.30
44461;DHT22;30162;53.642;10.640;2023-06-22T11:03:56;33.10;56.20
44461;DHT22;30162;53.642;10.640;2023-06-22T11:06:22;33.40;55.80
44461;DHT22;30162;53.642;10.640;2023-06-22T11:08:47;33.80;56.70
44461;DHT22;30162;53.642;10.640;2023-06-22T11:11:13;34.40;56.50
44461;DHT22;30162;53.642;10.640;2023-06-22T11:13:38;34.90;54.70
44461;DHT22;30162;53.642;10.640;2023-06-22T11:16:04;35.10;54.80
44461;DHT22;30162;53.642;10.640;2023-06-22T11:18:30;35.50;53.40
44461;DHT22;30162;53.642;10.640;2023-06-22T11:20:56;35.20;53.90
44461;DHT22;30162;53.642;10.640;2023-06-22T11:23:21;35.10;53.60
44461;DHT22;30162;53.642;10.640;2023-06-22T11:25:47;35.20;52.30
44461;DHT22;30162;53.642;10.640;2023-06-22T11:28:12;35.20;54.60
44461;DHT22;30162;53.642;10.640;2023-06-22T11:30:38;35.60;53.20
44461;DHT22;30162;53.642;10.640;2023-06-22T11:33:03;36.00;53.10
44461;DHT22;30162;53.642;10.640;2023-06-22T11:35:29;36.20;54.40
44461;DHT22;30162;53.642;10.640;2023-06-22T11:37:54;36.20;52.80
44461;DHT22;30162;53.642;10.640;2023-06-22T11:40:21;35.60;52.20
44461;DHT22;30162;53.642;10.640;2023-06-22T11:42:48;35.00;52.90
44461;DHT22;30162;53.642;10.640;2023-06-22T11:45:13;35.00;52.80
44461;DHT22;30162;53.642;10.640;2023-06-22T11:47:39;35.00;52.60
44461;DHT22;30162;53.642;10.640;2023-06-22T11:50:04;34.90;53.30
44461;DHT22;30162;53.642;10.640;2023-06-22T11:52:30;35.20;52.80
44461;DHT22;30162;53.642;10.640;2023-06-22T11:54:55;35.60;51.80
44461;DHT22;30162;53.642;10.640;2023-06-22T11:57:21;35.80;51.50
44461;DHT22;30162;53.642;10.640;2023-06-22T11:59:46;35.80;53.20
44461;DHT22;30162;53.642;10.640;2023-06-22T12:02:12;35.70;52.80
44461;DHT22;30162;53.642;10.640;2023-06-22T12:04:37;35.50;53.40
44461;DHT22;30162;53.642;10.640;2023-06-22T12:07:03;35.20;53.50
44461;DHT22;30162;53.642;10.640;2023-06-22T12:09:28;34.70;54.00
44461;DHT22;30162;53.642;10.640;2023-06-22T12:11:54;34.30;55.00
44461;DHT22;30162;53.642;10.640;2023-06-22T12:14:19;34.20;54.30
44461;DHT22;30162;53.642;10.640;2023-06-22T12:16:45;34.00;54.90
44461;DHT22;30162;53.642;10.640;2023-06-22T12:19:11;33.80;55.90
44461;DHT22;30162;53.642;10.640;2023-06-22T12:21:37;33.80;56.30
44461;DHT22;30162;53.642;10.640;2023-06-22T12:24:02;33.80;55.40
44461;DHT22;30162;53.642;10.640;2023-06-22T12:26:28;33.90;55.80
44461;DHT22;30162;53.642;10.640;2023-06-22T12:28:53;34.20;56.50
44461;DHT22;30162;53.642;10.640;2023-06-22T12:31:19;34.30;54.80
44461;DHT22;30162;53.642;10.640;2023-06-22T12:33:44;34.50;54.70
44461;DHT22;30162;53.642;10.640;2023-06-22T12:36:10;34.50;55.00
44461;DHT22;30162;53.642;10.640;2023-06-22T12:38:35;34.30;54.80
44461;DHT22;30162;53.642;10.640;2023-06-22T12:41:01;34.20;56.40
44461;DHT22;30162;53.642;10.640;2023-06-22T12:43:26;34.30;55.60
44461;DHT22;30162;53.642;10.640;2023-06-22T12:45:51;34.30;56.60
44461;DHT22;30162;53.642;10.640;2023-06-22T12:48:18;34.30;56.70
44461;DHT22;30162;53.642;10.640;2023-06-22T12:50:44;34.20;55.90
44461;DHT22;30162;53.642;10.640;2023-06-22T12:53:09;33.90;55.60
44461;DHT22;30162;53.642;10.640;2023-06-22T12:55:35;33.90;56.20
44461;DHT22;30162;53.642;10.640;2023-06-22T12:58:00;34.00;56.70
44461;DHT22;30162;53.642;10.640;2023-06-22T13:00:26;34.20;55.70
44461;DHT22;30162;53.642;10.640;2023-06-22T13:02:51;34.30;55.10
44461;DHT22;30162;53.642;10.640;2023-06-22T13:05:17;34.50;54.90
44461;DHT22;30162;53.642;10.640;2023-06-22T13:07:42;34.60;54.20
44461;DHT22;30162;53.642;10.640;2023-06-22T13:10:08;34.00;55.50
44461;DHT22;30162;53.642;10.640;2023-06-22T13:12:33;33.80;55.80
44461;DHT22;30162;53.642;10.640;2023-06-22T13:14:59;33.30;55.90
44461;DHT22;30162;53.642;10.640;2023-06-22T13:17:24;33.30;56.60
44461;DHT22;30162;53.642;10.640;2023-06-22T13:19:49;33.40;56.80
44461;DHT22;30162;53.642;10.640;2023-06-22T13:24:54;34.10;56.30
44461;DHT22;30162;53.642;10.640;2023-06-22T13:27:19;34.50;55.50
44461;DHT22;30162;53.642;10.640;2023-06-22T13:29:45;34.50;55.40
44461;DHT22;30162;53.642;10.640;2023-06-22T13:32:10;34.80;54.60
44461;DHT22;30162;53.642;10.640;2023-06-22T13:34:36;35.20;54.20
44461;DHT22;30162;53.642;10.640;2023-06-22T13:37:01;35.60;53.60
44461;DHT22;30162;53.642;10.640;2023-06-22T13:39:27;35.70;54.30
44461;DHT22;30162;53.642;10.640;2023-06-22T13:41:52;35.50;54.30
44461;DHT22;30162;53.642;10.640;2023-06-22T13:44:17;35.10;53.00
44461;DHT22;30162;53.642;10.640;2023-06-22T13:46:43;34.70;54.10
44461;DHT22;30162;53.642;10.640;2023-06-22T13:49:08;34.60;54.30
44461;DHT22;30162;53.642;10.640;2023-06-22T13:51:34;34.40;54.40
44461;DHT22;30162;53.642;10.640;2023-06-22T13:54:00;34.20;53.90
44461;DHT22;30162;53.642;10.640;2023-06-22T13:56:25;34.00;54.00
44461;DHT22;30162;53.642;10.640;2023-06-22T13:58:51;33.80;54.40
44461;DHT22;30162;53.642;10.640;2023-06-22T14:01:16;33.70;55.20
44461;DHT22;30162;53.642;10.640;2023-06-22T14:03:42;33.60;55.30
44461;DHT22;30162;53.642;10.640;2023-06-22T14:06:10;33.40;55.90
44461;DHT22;30162;53.642;10.640;2023-06-22T14:08:37;33.30;57.10
44461;DHT22;30162;53.642;10.640;2023-06-22T14:11:02;33.10;56.70
44461;DHT22;30162;53.642;10.640;2023-06-22T14:13:28;32.90;57.70
44461;DHT22;30162;53.642;10.640;2023-06-22T14:15:53;33.00;57.60
44461;DHT22;30162;53.642;10.640;2023-06-22T14:18:19;33.10;58.20
44461;DHT22;30162;53.642;10.640;2023-06-22T14:20:44;33.10;57.50
44461;DHT22;30162;53.642;10.640;2023-06-22T14:23:10;33.00;57.60
44461;DHT22;30162;53.642;10.640;2023-06-22T14:25:35;32.80;57.90
44461;DHT22;30162;53.642;10.640;2023-06-22T14:28:01;32.80;57.60
44461;DHT22;30162;53.642;10.640;2023-06-22T14:30:26;32.60;58.50
44461;DHT22;30162;53.642;10.640;2023-06-22T14:32:52;32.40;58.90
44461;DHT22;30162;53.642;10.640;2023-06-22T14:35:17;32.40;58.80
44461;DHT22;30162;53.642;10.640;2023-06-22T14:37:43;32.30;59.00
44461;DHT22;30162;53.642;10.640;2023-06-22T14:40:08;32.50;59.60
44461;DHT22;30162;53.642;10.640;2023-06-22T14:42:34;32.50;59.60
44461;DHT22;30162;53.642;10.640;2023-06-22T14:44:59;32.30;59.70
44461;DHT22;30162;53.642;10.640;2023-06-22T14:47:25;32.30;59.10
44461;DHT22;30162;53.642;10.640;2023-06-22T14:49:50;32.30;59.30
44461;DHT22;30162;53.642;10.640;2023-06-22T14:52:15;32.20;59.50
44461;DHT22;30162;53.642;10.640;2023-06-22T14:54:41;32.20;60.30
44461;DHT22;30162;53.642;10.640;2023-06-22T14:57:06;32.30;60.60
44461;DHT22;30162;53.642;10.640;2023-06-22T14:59:32;32.20;59.90
44461;DHT22;30162;53.642;10.640;2023-06-22T15:01:57;32.00;59.60
44461;DHT22;30162;53.642;10.640;2023-06-22T15:04:23;31.90;60.30
44461;DHT22;30162;53.642;10.640;2023-06-22T15:06:48;31.80;60.60
44461;DHT22;30162;53.642;10.640;2023-06-22T15:09:14;31.90;60.60
44461;DHT22;30162;53.642;10.640;2023-06-22T15:11:39;31.90;60.00